createdAt,value
2022-12-28T00:00:04.246Z,1.81
2022-12-28T00:01:03.908Z,1.75
2022-12-28T00:02:03.967Z,1.81
2022-12-28T00:03:04.044Z,1.81
2022-12-28T00:04:03.947Z,1.75
2022-12-28T00:05:03.989Z,1.75
2022-12-28T00:06:03.791Z,1.75
2022-12-28T00:07:03.822Z,1.75
2022-12-28T00:08:03.793Z,1.75
2022-12-28T00:09:03.528Z,1.75
2022-12-28T00:10:04.390Z,1.75
2022-12-28T00:11:06.872Z,1.75
2022-12-28T00:12:04.461Z,1.75
2022-12-28T00:13:04.334Z,1.75
2022-12-28T00:14:04.350Z,1.75
2022-12-28T00:15:04.242Z,1.75
2022-12-28T00:16:04.287Z,1.75
2022-12-28T00:17:04.378Z,1.75
2022-12-28T00:18:04.253Z,1.75
2022-12-28T00:19:04.150Z,1.75
2022-12-28T00:20:03.982Z,1.75
2022-12-28T00:21:08.867Z,1.75
2022-12-28T00:22:03.766Z,1.75
2022-12-28T00:23:03.856Z,1.75
2022-12-28T00:24:03.784Z,1.75
2022-12-28T00:25:03.459Z,1.75
2022-12-28T00:26:04.537Z,1.75
2022-12-28T00:27:04.338Z,1.75
2022-12-28T00:28:04.242Z,1.75
2022-12-28T00:29:05.451Z,1.75
2022-12-28T00:30:04.019Z,1.75
2022-12-28T00:31:04.026Z,1.75
2022-12-28T00:32:04.142Z,1.75
2022-12-28T00:33:03.916Z,1.75
2022-12-28T00:34:03.846Z,1.75
2022-12-28T00:35:03.792Z,1.75
2022-12-28T00:36:03.750Z,1.75
2022-12-28T00:37:11.340Z,1.81
2022-12-28T00:38:03.540Z,1.81
2022-12-28T00:39:04.411Z,1.81
2022-12-28T00:40:04.340Z,1.81
2022-12-28T00:41:04.369Z,1.81
2022-12-28T00:42:04.344Z,1.81
2022-12-28T00:43:04.287Z,1.81
2022-12-28T00:44:04.359Z,1.81
2022-12-28T00:45:04.095Z,1.81
2022-12-28T00:46:04.299Z,1.81
2022-12-28T00:47:04.137Z,1.88
2022-12-28T00:48:04.021Z,1.81
2022-12-28T00:49:03.930Z,1.88
2022-12-28T00:50:03.763Z,1.88
2022-12-28T00:51:03.981Z,1.88
2022-12-28T00:52:03.687Z,1.88
2022-12-28T00:53:03.690Z,1.88
2022-12-28T00:54:04.532Z,1.94
2022-12-28T00:55:04.508Z,1.94
2022-12-28T00:56:04.337Z,1.94
2022-12-28T00:57:04.308Z,1.94
2022-12-28T00:58:04.241Z,1.94
2022-12-28T00:59:04.013Z,2.00
2022-12-28T01:00:03.952Z,2.00
2022-12-28T01:01:03.962Z,2.00
2022-12-28T01:02:04.075Z,2.00
2022-12-28T01:03:03.721Z,2.00
2022-12-28T01:04:03.588Z,2.06
2022-12-28T01:05:03.591Z,2.06
2022-12-28T01:06:03.602Z,2.06
2022-12-28T01:07:03.598Z,2.12
2022-12-28T01:08:03.521Z,2.12
2022-12-28T01:09:04.392Z,2.12
2022-12-28T01:10:04.585Z,2.12
2022-12-28T01:11:03.645Z,2.12
2022-12-28T01:12:03.451Z,2.12
2022-12-28T01:13:04.390Z,2.12
2022-12-28T01:14:04.408Z,2.12
2022-12-28T01:15:04.420Z,2.12
2022-12-28T01:16:03.907Z,2.19
2022-12-28T01:17:03.676Z,2.19
2022-12-28T01:18:03.901Z,2.19
2022-12-28T01:19:03.696Z,2.25
2022-12-28T01:20:03.588Z,2.25
2022-12-28T01:21:03.750Z,2.25
2022-12-28T01:22:03.774Z,2.25
2022-12-28T01:23:03.561Z,2.25
2022-12-28T01:24:04.475Z,2.25
2022-12-28T01:25:04.491Z,2.25
2022-12-28T01:26:04.482Z,2.25
2022-12-28T01:27:04.169Z,2.25
2022-12-28T01:28:04.278Z,2.25
2022-12-28T01:29:04.099Z,2.25
2022-12-28T01:30:04.199Z,2.25
2022-12-28T01:31:04.227Z,2.25
2022-12-28T01:32:04.217Z,2.25
2022-12-28T01:33:04.002Z,2.25
2022-12-28T01:34:04.039Z,2.25
2022-12-28T01:35:04.071Z,2.25
2022-12-28T01:36:03.899Z,2.25
2022-12-28T01:37:03.807Z,2.25
2022-12-28T01:38:03.671Z,2.25
2022-12-28T01:39:03.767Z,2.25
2022-12-28T01:40:03.446Z,2.25
2022-12-28T01:41:04.484Z,2.25
2022-12-28T01:42:04.254Z,2.25
2022-12-28T01:43:04.355Z,2.25
2022-12-28T01:44:04.238Z,2.25
2022-12-28T01:45:04.148Z,2.25
2022-12-28T01:46:04.078Z,2.25
2022-12-28T01:47:04.000Z,2.25
2022-12-28T01:48:03.911Z,2.25
2022-12-28T01:49:03.925Z,2.25
2022-12-28T01:50:03.943Z,2.25
2022-12-28T01:51:03.972Z,2.25
2022-12-28T01:52:03.932Z,2.25
2022-12-28T01:53:03.780Z,2.25
2022-12-28T01:54:03.982Z,2.25
2022-12-28T01:55:03.675Z,2.25
2022-12-28T01:56:03.578Z,2.25
2022-12-28T01:57:03.653Z,2.25
2022-12-28T01:58:04.681Z,2.25
2022-12-28T01:59:04.310Z,2.25
2022-12-28T02:00:04.150Z,2.25
2022-12-28T02:01:04.215Z,2.31
2022-12-28T02:02:04.341Z,2.25
2022-12-28T02:03:04.029Z,2.25
2022-12-28T02:04:03.911Z,2.31
2022-12-28T02:05:03.755Z,2.31
2022-12-28T02:06:03.915Z,2.31
2022-12-28T02:07:03.689Z,2.31
2022-12-28T02:08:03.690Z,2.31
2022-12-28T02:09:03.774Z,2.31
2022-12-28T02:10:41.980Z,2.31
2022-12-28T02:11:04.317Z,2.31
2022-12-28T02:12:04.227Z,2.31
2022-12-28T02:13:04.279Z,2.31
2022-12-28T02:14:04.088Z,2.38
2022-12-28T02:15:03.994Z,2.31
2022-12-28T02:16:03.909Z,2.38
2022-12-28T02:17:04.018Z,2.38
2022-12-28T02:18:03.752Z,2.38
2022-12-28T02:19:03.841Z,2.44
2022-12-28T02:20:03.599Z,2.44
2022-12-28T02:21:03.647Z,2.44
2022-12-28T02:22:04.471Z,2.44
2022-12-28T02:23:04.324Z,2.50
2022-12-28T02:24:04.243Z,2.56
2022-12-28T02:25:11.787Z,2.56
2022-12-28T02:26:03.993Z,2.56
2022-12-28T02:27:03.995Z,2.50
2022-12-28T02:28:03.839Z,2.50
2022-12-28T02:29:03.907Z,2.50
2022-12-28T02:30:03.837Z,2.50
2022-12-28T02:31:03.944Z,2.50
2022-12-28T02:32:03.841Z,2.50
2022-12-28T02:33:03.665Z,2.50
2022-12-28T02:34:03.617Z,2.50
2022-12-28T02:35:03.658Z,2.50
2022-12-28T02:36:03.623Z,2.50
2022-12-28T02:37:04.473Z,2.50
2022-12-28T02:38:04.398Z,2.50
2022-12-28T02:39:04.316Z,2.50
2022-12-28T02:40:04.232Z,2.50
2022-12-28T02:41:04.235Z,2.50
2022-12-28T02:42:04.069Z,2.50
2022-12-28T02:43:04.081Z,2.50
2022-12-28T02:44:04.230Z,2.50
2022-12-28T02:45:04.155Z,2.50
2022-12-28T02:46:04.239Z,2.50
2022-12-28T02:47:04.011Z,2.50
2022-12-28T02:48:04.073Z,2.44
2022-12-28T02:49:03.925Z,2.50
2022-12-28T02:50:03.754Z,2.44
2022-12-28T02:51:03.678Z,2.44
2022-12-28T02:52:03.601Z,2.50
2022-12-28T02:53:03.520Z,2.50
2022-12-28T02:54:03.437Z,2.50
2022-12-28T02:55:04.389Z,2.50
2022-12-28T02:56:04.311Z,2.44
2022-12-28T02:57:04.229Z,2.50
2022-12-28T02:58:04.226Z,2.44
2022-12-28T02:59:04.156Z,2.44
2022-12-28T03:00:04.075Z,2.44
2022-12-28T03:01:03.592Z,2.50
2022-12-28T03:02:03.727Z,2.50
2022-12-28T03:03:04.493Z,2.50
2022-12-28T03:04:04.323Z,2.44
2022-12-28T03:05:03.536Z,2.44
2022-12-28T03:06:03.508Z,2.44
2022-12-28T03:07:03.509Z,2.44
2022-12-28T03:08:04.402Z,2.44
2022-12-28T03:09:03.459Z,2.44
2022-12-28T03:10:04.310Z,2.44
2022-12-28T03:11:04.249Z,2.44
2022-12-28T03:12:04.170Z,2.44
2022-12-28T03:13:04.012Z,2.44
2022-12-28T03:14:04.073Z,2.44
2022-12-28T03:15:03.953Z,2.44
2022-12-28T03:16:03.943Z,2.38
2022-12-28T03:17:03.761Z,2.38
2022-12-28T03:18:03.672Z,2.38
2022-12-28T03:19:03.610Z,2.44
2022-12-28T03:20:03.519Z,2.44
2022-12-28T03:21:04.323Z,2.44
2022-12-28T03:22:04.269Z,2.44
2022-12-28T03:23:04.164Z,2.44
2022-12-28T03:24:04.060Z,2.44
2022-12-28T03:25:04.101Z,2.50
2022-12-28T03:26:04.068Z,2.50
2022-12-28T03:27:03.912Z,2.50
2022-12-28T03:28:03.917Z,2.50
2022-12-28T03:29:03.839Z,2.50
2022-12-28T03:30:03.847Z,2.50
2022-12-28T03:31:03.603Z,2.50
2022-12-28T03:32:03.674Z,2.50
2022-12-28T03:33:03.427Z,2.50
2022-12-28T03:34:04.390Z,2.50
2022-12-28T03:35:04.329Z,2.50
2022-12-28T03:36:04.153Z,2.50
2022-12-28T03:37:04.151Z,2.50
2022-12-28T03:38:04.001Z,2.50
2022-12-28T03:39:03.913Z,2.50
2022-12-28T03:40:03.753Z,2.56
2022-12-28T03:41:03.670Z,2.56
2022-12-28T03:42:03.674Z,2.56
2022-12-28T03:43:03.615Z,2.56
2022-12-28T03:44:03.521Z,2.56
2022-12-28T03:45:04.389Z,2.56
2022-12-28T03:46:03.706Z,2.56
2022-12-28T03:47:03.595Z,2.56
2022-12-28T03:48:03.434Z,2.56
2022-12-28T03:49:03.521Z,2.62
2022-12-28T03:50:04.396Z,2.62
2022-12-28T03:51:04.331Z,2.62
2022-12-28T03:52:03.507Z,2.62
2022-12-28T03:53:03.525Z,2.62
2022-12-28T03:54:04.395Z,2.62
2022-12-28T03:55:04.405Z,2.69
2022-12-28T03:56:04.234Z,2.69
2022-12-28T03:57:04.090Z,2.62
2022-12-28T03:58:04.159Z,2.62
2022-12-28T03:59:04.011Z,2.69
2022-12-28T04:00:03.917Z,2.69
2022-12-28T04:01:03.838Z,2.69
2022-12-28T04:02:03.823Z,2.69
2022-12-28T04:03:03.726Z,2.75
2022-12-28T04:04:03.503Z,2.75
2022-12-28T04:05:03.520Z,2.75
2022-12-28T04:06:03.516Z,2.75
2022-12-28T04:07:04.447Z,2.75
2022-12-28T04:08:04.317Z,2.75
2022-12-28T04:09:04.227Z,2.75
2022-12-28T04:10:04.163Z,2.81
2022-12-28T04:11:04.240Z,2.81
2022-12-28T04:12:03.990Z,2.81
2022-12-28T04:13:04.090Z,2.81
2022-12-28T04:14:08.602Z,2.81
2022-12-28T04:15:03.939Z,2.81
2022-12-28T04:16:03.846Z,2.81
2022-12-28T04:17:03.826Z,2.81
2022-12-28T04:18:03.834Z,2.88
2022-12-28T04:19:03.763Z,2.88
2022-12-28T04:20:03.584Z,2.88
2022-12-28T04:21:03.516Z,2.88
2022-12-28T04:22:03.438Z,2.88
2022-12-28T04:23:04.400Z,2.88
2022-12-28T04:24:04.310Z,2.88
2022-12-28T04:25:04.166Z,2.88
2022-12-28T04:26:04.146Z,2.88
2022-12-28T04:27:04.008Z,2.88
2022-12-28T04:28:03.924Z,2.88
2022-12-28T04:29:03.774Z,2.88
2022-12-28T04:30:03.678Z,2.94
2022-12-28T04:31:03.732Z,2.94
2022-12-28T04:32:03.595Z,2.94
2022-12-28T04:33:03.601Z,2.94
2022-12-28T04:34:03.674Z,2.94
2022-12-28T04:35:03.449Z,2.94
2022-12-28T04:36:03.433Z,2.94
2022-12-28T04:37:04.474Z,2.94
2022-12-28T04:38:04.395Z,2.94
2022-12-28T04:39:04.398Z,2.88
2022-12-28T04:40:04.313Z,2.94
2022-12-28T04:41:04.254Z,2.94
2022-12-28T04:42:04.171Z,2.94
2022-12-28T04:43:03.995Z,2.94
2022-12-28T04:44:04.021Z,2.94
2022-12-28T04:45:03.831Z,2.94
2022-12-28T04:46:03.842Z,2.94
2022-12-28T04:47:03.666Z,2.94
2022-12-28T04:48:03.682Z,2.94
2022-12-28T04:49:03.596Z,2.94
2022-12-28T04:50:03.607Z,2.94
2022-12-28T04:51:03.518Z,3.00
2022-12-28T04:52:04.384Z,3.00
2022-12-28T04:53:04.404Z,3.00
2022-12-28T04:54:04.401Z,3.00
2022-12-28T04:55:04.397Z,3.00
2022-12-28T04:56:04.238Z,3.00
2022-12-28T04:57:04.236Z,3.00
2022-12-28T04:58:04.239Z,3.00
2022-12-28T04:59:04.249Z,3.00
2022-12-28T05:00:04.081Z,3.00
2022-12-28T05:01:04.251Z,3.00
2022-12-28T05:02:04.134Z,3.06
2022-12-28T05:03:03.953Z,3.06
2022-12-28T05:04:03.991Z,3.06
2022-12-28T05:05:03.835Z,3.06
2022-12-28T05:06:03.837Z,3.06
2022-12-28T05:07:03.679Z,3.06
2022-12-28T05:08:03.591Z,3.06
2022-12-28T05:09:03.609Z,3.06
2022-12-28T05:10:03.425Z,3.12
2022-12-28T05:11:04.405Z,3.12
2022-12-28T05:12:04.341Z,3.12
2022-12-28T05:13:04.151Z,3.12
2022-12-28T05:14:04.071Z,3.19
2022-12-28T05:15:03.931Z,3.19
2022-12-28T05:16:03.895Z,3.19
2022-12-28T05:17:03.835Z,3.19
2022-12-28T05:18:03.760Z,3.19
2022-12-28T05:19:03.601Z,3.19
2022-12-28T05:20:03.509Z,3.19
2022-12-28T05:21:03.435Z,3.25
2022-12-28T05:22:04.402Z,3.25
2022-12-28T05:23:04.403Z,3.25
2022-12-28T05:24:04.316Z,3.25
2022-12-28T05:25:04.354Z,3.31
2022-12-28T05:26:03.442Z,3.31
2022-12-28T05:27:03.757Z,3.31
2022-12-28T05:28:03.669Z,3.31
2022-12-28T05:29:03.684Z,3.31
2022-12-28T05:30:03.674Z,3.31
2022-12-28T05:31:03.565Z,3.38
2022-12-28T05:32:04.397Z,3.38
2022-12-28T05:33:04.231Z,3.38
2022-12-28T05:34:04.073Z,3.38
2022-12-28T05:35:04.403Z,3.38
2022-12-28T05:36:03.756Z,3.38
2022-12-28T05:37:03.761Z,3.44
2022-12-28T05:38:03.595Z,3.44
2022-12-28T05:39:03.752Z,3.44
2022-12-28T05:40:03.667Z,3.44
2022-12-28T05:41:03.508Z,3.50
2022-12-28T05:42:03.441Z,3.50
2022-12-28T05:43:03.511Z,3.50
2022-12-28T05:44:04.318Z,3.50
2022-12-28T05:45:04.309Z,3.50
2022-12-28T05:46:04.146Z,3.50
2022-12-28T05:47:04.317Z,3.50
2022-12-28T05:48:04.170Z,3.56
2022-12-28T05:49:04.092Z,3.50
2022-12-28T05:50:03.919Z,3.56
2022-12-28T05:51:03.755Z,3.56
2022-12-28T05:52:03.684Z,3.56
2022-12-28T05:53:04.026Z,3.56
2022-12-28T05:54:03.840Z,3.56
2022-12-28T05:55:03.769Z,3.56
2022-12-28T05:56:03.838Z,3.62
2022-12-28T05:57:03.839Z,3.56
2022-12-28T05:58:04.067Z,3.56
2022-12-28T05:59:04.020Z,3.62
2022-12-28T06:00:03.993Z,3.62
2022-12-28T06:01:04.113Z,3.62
2022-12-28T06:02:04.122Z,3.62
2022-12-28T06:03:04.023Z,3.62
2022-12-28T06:04:03.836Z,3.62
2022-12-28T06:05:03.921Z,3.62
2022-12-28T06:06:03.748Z,3.62
2022-12-28T06:07:03.754Z,3.62
2022-12-28T06:08:03.692Z,3.62
2022-12-28T06:09:03.825Z,3.62
2022-12-28T06:10:03.765Z,3.62
2022-12-28T06:11:03.593Z,3.62
2022-12-28T06:12:03.622Z,3.62
2022-12-28T06:13:03.517Z,3.62
2022-12-28T06:14:03.576Z,3.62
2022-12-28T06:15:03.448Z,3.62
2022-12-28T06:16:03.498Z,3.62
2022-12-28T06:17:04.490Z,3.62
2022-12-28T06:18:04.392Z,3.62
2022-12-28T06:19:04.440Z,3.69
2022-12-28T06:20:04.311Z,3.69
2022-12-28T06:21:04.232Z,3.69
2022-12-28T06:22:04.252Z,3.69
2022-12-28T06:23:04.158Z,3.69
2022-12-28T06:24:03.990Z,3.69
2022-12-28T06:25:04.092Z,3.69
2022-12-28T06:26:03.923Z,3.69
2022-12-28T06:27:03.852Z,3.69
2022-12-28T06:28:03.837Z,3.69
2022-12-28T06:29:03.850Z,3.69
2022-12-28T06:30:03.670Z,3.69
2022-12-28T06:31:03.758Z,3.69
2022-12-28T06:32:03.752Z,3.69
2022-12-28T06:33:03.670Z,3.69
2022-12-28T06:34:03.677Z,3.69
2022-12-28T06:35:03.589Z,3.69
2022-12-28T06:36:03.522Z,3.69
2022-12-28T06:37:03.588Z,3.69
2022-12-28T06:38:03.510Z,3.69
2022-12-28T06:39:03.596Z,3.69
2022-12-28T06:40:03.995Z,3.69
2022-12-28T06:41:13.691Z,3.75
2022-12-28T06:42:03.933Z,3.69
2022-12-28T06:43:03.756Z,3.69
2022-12-28T06:44:03.681Z,3.75
2022-12-28T06:45:03.522Z,3.75
2022-12-28T06:46:03.609Z,3.75
2022-12-28T06:47:03.527Z,3.75
2022-12-28T06:48:04.402Z,3.75
2022-12-28T06:49:04.327Z,3.75
2022-12-28T06:50:04.152Z,3.75
2022-12-28T06:51:04.110Z,3.75
2022-12-28T06:52:04.072Z,3.69
2022-12-28T06:53:03.927Z,3.69
2022-12-28T06:54:03.853Z,3.69
2022-12-28T06:55:03.760Z,3.75
2022-12-28T06:56:03.767Z,3.75
2022-12-28T06:57:03.911Z,3.75
2022-12-28T06:58:03.435Z,3.75
2022-12-28T06:59:04.127Z,3.75
2022-12-28T07:00:04.460Z,3.75
2022-12-28T07:01:04.416Z,3.75
2022-12-28T07:02:04.376Z,3.75
2022-12-28T07:03:04.188Z,3.75
2022-12-28T07:04:04.099Z,3.81
2022-12-28T07:05:03.990Z,3.81
2022-12-28T07:06:04.100Z,3.75
2022-12-28T07:07:03.998Z,3.81
2022-12-28T07:08:07.731Z,3.81
2022-12-28T07:09:04.002Z,3.81
2022-12-28T07:10:03.914Z,3.81
2022-12-28T07:11:03.838Z,3.88
2022-12-28T07:12:03.760Z,3.81
2022-12-28T07:13:03.922Z,3.81
2022-12-28T07:14:03.835Z,3.81
2022-12-28T07:15:03.780Z,3.88
2022-12-28T07:16:03.598Z,3.88
2022-12-28T07:17:03.759Z,3.88
2022-12-28T07:18:03.681Z,3.94
2022-12-28T07:19:04.834Z,3.88
2022-12-28T07:20:03.522Z,3.94
2022-12-28T07:21:04.495Z,3.94
2022-12-28T07:22:04.395Z,3.94
2022-12-28T07:23:04.305Z,3.94
2022-12-28T07:24:04.241Z,3.94
2022-12-28T07:25:04.156Z,4.00
2022-12-28T07:26:04.155Z,3.94
2022-12-28T07:27:04.003Z,4.00
2022-12-28T07:28:03.993Z,4.00
2022-12-28T07:29:03.988Z,4.00
2022-12-28T07:30:03.919Z,4.00
2022-12-28T07:31:03.923Z,4.00
2022-12-28T07:32:03.754Z,4.00
2022-12-28T07:33:03.686Z,4.00
2022-12-28T07:34:03.669Z,4.00
2022-12-28T07:35:03.746Z,4.00
2022-12-28T07:36:03.753Z,4.00
2022-12-28T07:37:03.753Z,4.00
2022-12-28T07:38:03.663Z,4.00
2022-12-28T07:39:03.671Z,4.06
2022-12-28T07:40:03.675Z,4.06
2022-12-28T07:41:03.677Z,4.12
2022-12-28T07:42:03.589Z,4.12
2022-12-28T07:43:03.430Z,4.12
2022-12-28T07:44:03.423Z,4.19
2022-12-28T07:45:04.419Z,4.19
2022-12-28T07:46:04.382Z,4.19
2022-12-28T07:47:04.337Z,4.19
2022-12-28T07:48:04.237Z,4.25
2022-12-28T07:49:04.199Z,4.25
2022-12-28T07:50:04.163Z,4.25
2022-12-28T07:51:04.083Z,4.31
2022-12-28T07:52:04.005Z,4.31
2022-12-28T07:53:03.908Z,4.31
2022-12-28T07:54:03.830Z,4.38
2022-12-28T07:55:03.757Z,4.38
2022-12-28T07:56:03.755Z,4.38
2022-12-28T07:57:03.670Z,4.44
2022-12-28T07:58:03.674Z,4.44
2022-12-28T07:59:03.608Z,4.44
2022-12-28T08:00:03.597Z,4.44
2022-12-28T08:01:03.628Z,4.50
2022-12-28T08:02:04.470Z,4.50
2022-12-28T08:03:04.341Z,4.50
2022-12-28T08:04:04.475Z,4.56
2022-12-28T08:05:04.165Z,4.56
2022-12-28T08:06:04.426Z,4.56
2022-12-28T08:07:04.101Z,4.56
2022-12-28T08:08:04.099Z,4.62
2022-12-28T08:09:04.094Z,4.62
2022-12-28T08:10:03.990Z,4.62
2022-12-28T08:11:04.003Z,4.69
2022-12-28T08:12:03.832Z,4.69
2022-12-28T08:13:03.836Z,4.69
2022-12-28T08:14:03.758Z,4.69
2022-12-28T08:15:03.763Z,4.69
2022-12-28T08:16:03.671Z,4.75
2022-12-28T08:17:03.519Z,4.75
2022-12-28T08:18:04.387Z,4.75
2022-12-28T08:19:04.400Z,4.75
2022-12-28T08:20:04.319Z,4.75
2022-12-28T08:21:04.239Z,4.81
2022-12-28T08:22:04.208Z,4.75
2022-12-28T08:23:03.995Z,4.81
2022-12-28T08:24:04.077Z,4.81
2022-12-28T08:25:03.921Z,4.81
2022-12-28T08:26:03.919Z,4.81
2022-12-28T08:27:03.923Z,4.88
2022-12-28T08:28:03.745Z,4.88
2022-12-28T08:29:03.585Z,4.88
2022-12-28T08:30:03.578Z,4.88
2022-12-28T08:31:03.533Z,4.94
2022-12-28T08:32:04.384Z,4.94
2022-12-28T08:33:04.393Z,4.94
2022-12-28T08:34:04.384Z,4.94
2022-12-28T08:35:04.390Z,4.94
2022-12-28T08:36:04.309Z,5.00
2022-12-28T08:37:04.344Z,5.00
2022-12-28T08:38:04.228Z,5.00
2022-12-28T08:39:04.179Z,5.00
2022-12-28T08:40:03.997Z,5.06
2022-12-28T08:41:04.018Z,5.06
2022-12-28T08:42:03.868Z,5.06
2022-12-28T08:43:03.764Z,5.06
2022-12-28T08:44:03.752Z,5.12
2022-12-28T08:45:03.670Z,5.12
2022-12-28T08:46:03.772Z,5.12
2022-12-28T08:47:03.700Z,5.12
2022-12-28T08:48:03.445Z,5.12
2022-12-28T08:49:03.521Z,5.19
2022-12-28T08:50:03.505Z,5.19
2022-12-28T08:51:03.440Z,5.19
2022-12-28T08:52:04.404Z,5.19
2022-12-28T08:53:04.321Z,5.19
2022-12-28T08:54:04.154Z,5.25
2022-12-28T08:55:04.078Z,5.25
2022-12-28T08:56:06.553Z,5.25
2022-12-28T08:57:04.072Z,5.25
2022-12-28T08:58:04.332Z,5.31
2022-12-28T08:59:04.231Z,5.31
2022-12-28T09:00:04.065Z,5.31
2022-12-28T09:01:04.215Z,5.31
2022-12-28T09:02:04.027Z,5.31
2022-12-28T09:03:04.000Z,5.38
2022-12-28T09:04:03.749Z,5.38
2022-12-28T09:05:03.835Z,5.38
2022-12-28T09:06:03.665Z,5.38
2022-12-28T09:07:03.644Z,5.38
2022-12-28T09:08:03.500Z,5.38
2022-12-28T09:09:05.701Z,5.38
2022-12-28T09:10:04.434Z,5.44
2022-12-28T09:11:04.314Z,5.44
2022-12-28T09:12:04.227Z,5.44
2022-12-28T09:13:04.328Z,5.50
2022-12-28T09:14:04.322Z,5.44
2022-12-28T09:15:04.154Z,5.50
2022-12-28T09:16:04.272Z,5.50
2022-12-28T09:17:04.163Z,5.50
2022-12-28T09:18:04.065Z,5.50
2022-12-28T09:19:04.165Z,5.50
2022-12-28T09:20:04.079Z,5.56
2022-12-28T09:21:04.080Z,5.56
2022-12-28T09:22:04.091Z,5.56
2022-12-28T09:23:03.913Z,5.62
2022-12-28T09:24:03.831Z,5.62
2022-12-28T09:25:03.998Z,5.62
2022-12-28T09:26:03.837Z,5.62
2022-12-28T09:27:03.780Z,5.62
2022-12-28T09:28:03.675Z,5.62
2022-12-28T09:29:03.605Z,5.62
2022-12-28T09:30:03.765Z,5.69
2022-12-28T09:31:03.651Z,5.69
2022-12-28T09:32:04.748Z,5.69
2022-12-28T09:33:03.604Z,5.69
2022-12-28T09:34:35.355Z,5.69
2022-12-28T09:35:04.420Z,5.69
2022-12-28T09:36:03.539Z,5.69
2022-12-28T09:37:03.455Z,5.75
2022-12-28T09:38:04.405Z,5.75
2022-12-28T09:39:04.368Z,5.75
2022-12-28T09:40:04.316Z,5.75
2022-12-28T09:41:04.247Z,5.81
2022-12-28T09:42:04.323Z,5.81
2022-12-28T09:43:04.335Z,5.81
2022-12-28T09:44:04.234Z,5.81
2022-12-28T09:45:04.087Z,5.88
2022-12-28T09:46:04.074Z,5.88
2022-12-28T09:47:03.994Z,5.88
2022-12-28T09:48:03.932Z,5.88
2022-12-28T09:49:03.843Z,5.88
2022-12-28T09:50:03.757Z,5.88
2022-12-28T09:51:03.753Z,5.94
2022-12-28T09:52:03.678Z,5.88
2022-12-28T09:53:03.592Z,5.88
2022-12-28T09:54:03.521Z,5.94
2022-12-28T09:55:04.403Z,5.94
2022-12-28T09:56:04.400Z,5.94
2022-12-28T09:57:04.394Z,6.00
2022-12-28T09:58:04.319Z,6.00
2022-12-28T09:59:04.315Z,6.00
2022-12-28T10:00:04.317Z,6.00
2022-12-28T10:01:04.349Z,6.00
2022-12-28T10:02:04.331Z,6.00
2022-12-28T10:03:04.246Z,6.00
2022-12-28T10:04:04.153Z,6.00
2022-12-28T10:05:04.082Z,6.00
2022-12-28T10:06:04.154Z,6.00
2022-12-28T10:07:04.000Z,6.00
2022-12-28T10:08:04.004Z,6.06
2022-12-28T10:09:03.933Z,6.06
2022-12-28T10:10:03.840Z,6.06
2022-12-28T10:11:03.922Z,6.06
2022-12-28T10:12:03.826Z,6.12
2022-12-28T10:13:04.678Z,6.12
2022-12-28T10:14:03.833Z,6.12
2022-12-28T10:15:03.789Z,6.12
2022-12-28T10:16:03.824Z,6.12
2022-12-28T10:17:03.764Z,6.12
2022-12-28T10:18:03.757Z,6.12
2022-12-28T10:19:03.839Z,6.12
2022-12-28T10:20:03.685Z,6.12
2022-12-28T10:21:03.597Z,6.19
2022-12-28T10:22:03.613Z,6.19
2022-12-28T10:23:03.518Z,6.19
2022-12-28T10:24:32.317Z,6.19
2022-12-28T10:25:04.305Z,6.19
2022-12-28T10:26:04.327Z,6.19
2022-12-28T10:27:04.317Z,6.19
2022-12-28T10:28:04.258Z,6.25
2022-12-28T10:29:04.165Z,6.25
2022-12-28T10:30:04.113Z,6.25
2022-12-28T10:31:04.208Z,6.25
2022-12-28T10:32:04.173Z,6.25
2022-12-28T10:33:04.217Z,6.25
2022-12-28T10:34:04.158Z,6.25
2022-12-28T10:35:03.990Z,6.25
2022-12-28T10:36:03.935Z,6.25
2022-12-28T10:37:04.068Z,6.31
2022-12-28T10:38:04.390Z,6.31
2022-12-28T10:39:04.328Z,6.31
2022-12-28T10:40:04.325Z,6.31
2022-12-28T10:41:04.235Z,6.38
2022-12-28T10:42:04.228Z,6.38
2022-12-28T10:43:08.616Z,6.38
2022-12-28T10:45:04.153Z,6.38
2022-12-28T10:46:04.152Z,6.38
2022-12-28T10:47:04.287Z,6.38
2022-12-28T10:48:04.160Z,6.38
2022-12-28T10:49:04.067Z,6.44
2022-12-28T10:50:35.764Z,6.44
2022-12-28T10:51:04.002Z,6.44
2022-12-28T10:52:03.669Z,6.44
2022-12-28T10:53:03.530Z,6.44
2022-12-28T10:54:03.670Z,6.44
2022-12-28T10:55:07.820Z,6.44
2022-12-28T10:56:04.009Z,6.44
2022-12-28T10:57:03.995Z,6.44
2022-12-28T10:58:28.374Z,6.44
2022-12-28T10:59:03.836Z,6.44
2022-12-28T11:00:03.887Z,6.44
2022-12-28T11:01:03.992Z,6.50
2022-12-28T11:02:03.951Z,6.50
2022-12-28T11:03:03.696Z,6.50
2022-12-28T11:03:20.815Z,6.38
2022-12-28T11:04:03.825Z,6.56
2022-12-28T11:05:03.694Z,6.56
2022-12-28T11:06:03.611Z,6.56
2022-12-28T11:07:03.613Z,6.56
2022-12-28T11:08:03.517Z,6.56
2022-12-28T11:09:04.410Z,6.56
2022-12-28T11:10:04.397Z,6.56
2022-12-28T11:11:04.318Z,6.56
2022-12-28T11:12:04.393Z,6.56
2022-12-28T11:13:04.308Z,6.62
2022-12-28T11:14:04.388Z,6.62
2022-12-28T11:15:04.309Z,6.62
2022-12-28T11:16:04.355Z,6.62
2022-12-28T11:17:04.424Z,6.62
2022-12-28T11:18:03.538Z,6.62
2022-12-28T11:19:04.476Z,6.69
2022-12-28T11:20:04.389Z,6.69
2022-12-28T11:21:04.406Z,6.69
2022-12-28T11:22:04.428Z,6.69
2022-12-28T11:23:04.480Z,6.69
2022-12-28T11:24:04.402Z,6.69
2022-12-28T11:25:04.398Z,6.69
2022-12-28T11:26:04.229Z,6.69
2022-12-28T11:27:04.172Z,6.75
2022-12-28T11:28:04.239Z,6.75
2022-12-28T11:29:04.149Z,6.75
2022-12-28T11:30:04.113Z,6.75
2022-12-28T11:31:04.153Z,6.75
2022-12-28T11:32:03.994Z,6.75
2022-12-28T11:33:04.006Z,6.75
2022-12-28T11:34:03.987Z,6.75
2022-12-28T11:35:03.981Z,6.75
2022-12-28T11:36:08.388Z,6.75
2022-12-28T11:37:03.914Z,6.81
2022-12-28T11:38:03.912Z,6.81
2022-12-28T11:39:03.752Z,6.81
2022-12-28T11:40:03.768Z,6.81
2022-12-28T11:41:03.603Z,6.81
2022-12-28T11:42:36.939Z,6.81
2022-12-28T11:43:03.763Z,6.81
2022-12-28T11:44:03.705Z,6.81
2022-12-28T11:45:03.511Z,6.88
2022-12-28T11:46:04.445Z,6.88
2022-12-28T11:47:04.408Z,6.88
2022-12-28T11:48:04.311Z,6.88
2022-12-28T11:49:04.151Z,6.88
2022-12-28T11:50:04.078Z,6.94
2022-12-28T11:51:04.079Z,6.94
2022-12-28T11:52:04.067Z,6.94
2022-12-28T11:53:07.784Z,6.94
2022-12-28T11:54:04.198Z,7.00
2022-12-28T11:55:03.987Z,7.00
2022-12-28T11:56:03.951Z,6.94
2022-12-28T11:57:03.753Z,6.94
2022-12-28T11:58:03.829Z,6.94
2022-12-28T11:59:03.669Z,7.00
2022-12-28T12:00:03.875Z,7.00
2022-12-28T12:01:03.665Z,7.00
2022-12-28T12:02:03.715Z,7.00
2022-12-28T12:03:03.768Z,7.00
2022-12-28T12:04:03.609Z,7.06
2022-12-28T12:05:03.516Z,7.06
2022-12-28T12:06:04.386Z,7.06
2022-12-28T12:07:04.339Z,7.06
2022-12-28T12:08:04.393Z,7.06
2022-12-28T12:09:04.311Z,7.06
2022-12-28T12:10:04.323Z,7.06
2022-12-28T12:11:04.153Z,7.06
2022-12-28T12:12:04.077Z,7.06
2022-12-28T12:13:03.989Z,7.06
2022-12-28T12:14:03.990Z,7.06
2022-12-28T12:15:03.836Z,7.06
2022-12-28T12:16:04.022Z,7.12
2022-12-28T12:17:04.090Z,7.12
2022-12-28T12:18:03.761Z,7.12
2022-12-28T12:19:03.772Z,7.12
2022-12-28T12:20:03.580Z,7.12
2022-12-28T12:21:03.601Z,7.12
2022-12-28T12:22:04.476Z,7.12
2022-12-28T12:23:04.312Z,7.12
2022-12-28T12:24:04.320Z,7.12
2022-12-28T12:25:04.323Z,7.12
2022-12-28T12:26:04.177Z,7.12
2022-12-28T12:27:10.245Z,7.12
2022-12-28T12:28:04.149Z,7.12
2022-12-28T12:29:04.165Z,7.12
2022-12-28T12:30:04.019Z,7.12
2022-12-28T12:31:04.117Z,7.12
2022-12-28T12:32:03.920Z,7.12
2022-12-28T12:33:03.831Z,7.12
2022-12-28T12:34:03.755Z,7.12
2022-12-28T12:35:03.996Z,7.12
2022-12-28T12:36:03.756Z,7.12
2022-12-28T12:37:03.759Z,7.12
2022-12-28T12:38:03.679Z,7.12
2022-12-28T12:39:03.666Z,7.19
2022-12-28T12:40:03.665Z,7.19
2022-12-28T12:41:03.676Z,7.19
2022-12-28T12:42:03.674Z,7.19
2022-12-28T12:43:03.595Z,7.19
2022-12-28T12:44:04.421Z,7.19
2022-12-28T12:45:04.300Z,7.25
2022-12-28T12:46:04.365Z,7.19
2022-12-28T12:47:06.002Z,7.25
2022-12-28T12:48:04.247Z,7.25
2022-12-28T12:49:04.169Z,7.25
2022-12-28T12:50:04.195Z,7.25
2022-12-28T12:51:03.993Z,7.25
2022-12-28T12:52:03.993Z,7.25
2022-12-28T12:53:03.913Z,7.25
2022-12-28T12:54:03.834Z,7.25
2022-12-28T12:55:03.921Z,7.25
2022-12-28T12:56:03.847Z,7.31
2022-12-28T12:57:03.758Z,7.31
2022-12-28T12:58:03.596Z,7.31
2022-12-28T12:59:03.516Z,7.31
2022-12-28T13:00:04.407Z,7.31
2022-12-28T13:01:04.459Z,7.25
2022-12-28T13:02:04.401Z,7.31
2022-12-28T13:03:04.379Z,7.25
2022-12-28T13:04:04.233Z,7.31
2022-12-28T13:05:04.264Z,7.31
2022-12-28T13:06:04.239Z,7.31
2022-12-28T13:07:04.099Z,7.31
2022-12-28T13:08:04.077Z,7.25
2022-12-28T13:09:05.848Z,7.25
2022-12-28T13:10:03.828Z,7.31
2022-12-28T13:11:03.924Z,7.31
2022-12-28T13:12:03.748Z,7.25
2022-12-28T13:13:03.673Z,7.31
2022-12-28T13:14:03.588Z,7.31
2022-12-28T13:15:07.478Z,7.25
2022-12-28T13:16:04.558Z,7.25
2022-12-28T13:17:04.485Z,7.25
2022-12-28T13:18:42.813Z,7.25